createdAt,value
2019-03-19T00:00:03.630Z,0
2019-03-19T00:01:03.743Z,0
2019-03-19T00:02:03.843Z,0
2019-03-19T00:03:03.946Z,0
2019-03-19T00:04:04.074Z,0
2019-03-19T00:05:04.181Z,0
2019-03-19T00:06:04.285Z,0
2019-03-19T00:07:04.374Z,0
2019-03-19T00:08:04.470Z,0
2019-03-19T00:09:04.541Z,0
2019-03-19T00:10:04.636Z,0
2019-03-19T00:11:04.736Z,0
2019-03-19T00:12:04.744Z,0
2019-03-19T00:13:04.759Z,0
2019-03-19T00:14:04.918Z,0
2019-03-19T00:15:04.896Z,0
2019-03-19T00:16:04.929Z,0
2019-03-19T00:17:04.932Z,0
2019-03-19T00:18:05.030Z,0
2019-03-19T00:19:05.096Z,0
2019-03-19T00:20:05.145Z,0
2019-03-19T00:21:05.180Z,0
2019-03-19T00:22:05.242Z,0
2019-03-19T00:23:05.344Z,0
2019-03-19T00:24:05.514Z,0
2019-03-19T00:25:05.582Z,0
2019-03-19T00:26:05.585Z,0
2019-03-19T00:27:05.714Z,0
2019-03-19T00:28:05.791Z,0
2019-03-19T00:29:05.940Z,0
2019-03-19T00:30:06.049Z,0
2019-03-19T00:31:06.129Z,0
2019-03-19T00:32:06.203Z,0
2019-03-19T00:33:06.305Z,0
2019-03-19T00:34:06.372Z,0
2019-03-19T00:35:06.417Z,0
2019-03-19T00:36:06.476Z,0
2019-03-19T00:37:06.518Z,0
2019-03-19T00:38:06.586Z,0
2019-03-19T00:39:06.669Z,0
2019-03-19T00:40:06.710Z,0
2019-03-19T00:41:06.786Z,0
2019-03-19T00:42:06.825Z,0
2019-03-19T00:43:06.891Z,0
2019-03-19T00:44:06.976Z,0
2019-03-19T00:45:07.016Z,0
2019-03-19T00:46:07.061Z,0
2019-03-19T00:47:07.102Z,0
2019-03-19T00:48:07.135Z,0
2019-03-19T00:49:07.198Z,0
2019-03-19T00:50:07.276Z,0
2019-03-19T00:51:07.319Z,0
2019-03-19T00:52:07.385Z,0
2019-03-19T00:53:07.442Z,0
2019-03-19T00:54:07.596Z,0
2019-03-19T00:55:07.562Z,0
2019-03-19T00:56:07.675Z,0
2019-03-19T00:57:07.778Z,0
2019-03-19T00:58:07.885Z,0
2019-03-19T00:59:07.949Z,0
2019-03-19T01:00:09.038Z,0
2019-03-19T01:01:08.157Z,0
2019-03-19T01:02:08.216Z,0
2019-03-19T01:03:08.246Z,0
2019-03-19T01:04:08.319Z,0
2019-03-19T01:05:08.349Z,0
2019-03-19T01:06:08.368Z,0
2019-03-19T01:07:08.417Z,0
2019-03-19T01:08:08.447Z,0
2019-03-19T01:09:08.668Z,0
2019-03-19T01:10:08.549Z,0
2019-03-19T01:11:09.558Z,0
2019-03-19T01:12:08.601Z,0
2019-03-19T01:13:08.658Z,0
2019-03-19T01:14:08.760Z,0
2019-03-19T01:15:08.799Z,0
2019-03-19T01:16:08.838Z,0
2019-03-19T01:17:08.870Z,0
2019-03-19T01:18:08.906Z,0
2019-03-19T01:19:08.975Z,0
2019-03-19T01:20:09.045Z,0
2019-03-19T01:21:09.108Z,0
2019-03-19T01:22:09.154Z,0
2019-03-19T01:23:09.186Z,0
2019-03-19T01:24:09.238Z,0
2019-03-19T01:25:09.326Z,0
2019-03-19T01:26:09.372Z,0
2019-03-19T01:27:09.416Z,0
2019-03-19T01:28:09.471Z,0
2019-03-19T01:29:09.493Z,0
2019-03-19T01:30:09.584Z,0
2019-03-19T01:31:09.622Z,0
2019-03-19T01:32:09.687Z,0
2019-03-19T01:33:09.726Z,0
2019-03-19T01:34:09.763Z,0
2019-03-19T01:35:09.831Z,0
2019-03-19T01:36:09.870Z,0
2019-03-19T01:37:09.914Z,0
2019-03-19T01:38:09.973Z,0
2019-03-19T01:39:09.997Z,0
2019-03-19T01:40:10.098Z,0
2019-03-19T01:41:10.134Z,0
2019-03-19T01:42:10.172Z,0
2019-03-19T01:43:10.204Z,0
2019-03-19T01:44:10.260Z,0
2019-03-19T01:45:10.375Z,0
2019-03-19T01:46:10.441Z,0
2019-03-19T01:47:10.476Z,0
2019-03-19T01:48:10.487Z,0
2019-03-19T01:49:10.536Z,0
2019-03-19T01:50:10.622Z,0
2019-03-19T01:51:10.650Z,0
2019-03-19T01:52:10.685Z,0
2019-03-19T01:53:10.711Z,0
2019-03-19T01:54:10.737Z,0
2019-03-19T01:55:10.787Z,0
2019-03-19T01:56:10.808Z,0
2019-03-19T01:57:10.835Z,0
2019-03-19T01:58:10.872Z,0
2019-03-19T01:59:10.905Z,0
2019-03-19T02:00:10.956Z,0
2019-03-19T02:01:10.987Z,0
2019-03-19T02:02:11.011Z,0
2019-03-19T02:03:11.035Z,0
2019-03-19T02:04:11.071Z,0
2019-03-19T02:05:11.212Z,0
2019-03-19T02:06:11.242Z,0
2019-03-19T02:07:11.293Z,0
2019-03-19T02:08:11.392Z,0
2019-03-19T02:09:11.491Z,0
2019-03-19T02:10:11.622Z,0
2019-03-19T02:11:11.725Z,0
2019-03-19T02:12:11.843Z,0
2019-03-19T02:13:11.945Z,0
2019-03-19T02:14:12.095Z,0
2019-03-19T02:15:12.205Z,0
2019-03-19T02:16:12.303Z,0
2019-03-19T02:17:12.825Z,0
2019-03-19T02:18:12.520Z,0
2019-03-19T02:19:12.640Z,0
2019-03-19T02:20:12.771Z,0
2019-03-19T02:21:12.862Z,0
2019-03-19T02:22:12.970Z,0
2019-03-19T02:23:13.066Z,0
2019-03-19T02:24:13.169Z,0
2019-03-19T02:25:13.292Z,0
2019-03-19T02:26:16.626Z,0
2019-03-19T02:27:13.448Z,0
2019-03-19T02:28:13.571Z,0
2019-03-19T02:29:13.660Z,0
2019-03-19T02:30:13.801Z,0
2019-03-19T02:31:13.894Z,0
2019-03-19T02:32:13.991Z,0
2019-03-19T02:33:14.125Z,0
2019-03-19T02:34:14.223Z,0
2019-03-19T02:35:14.491Z,0
2019-03-19T02:36:14.487Z,0
2019-03-19T02:37:14.596Z,0
2019-03-19T02:38:14.702Z,0
2019-03-19T02:39:14.819Z,0
2019-03-19T02:40:14.987Z,0
2019-03-19T02:41:14.933Z,0
2019-03-19T02:42:15.035Z,0
2019-03-19T02:43:15.125Z,0
2019-03-19T02:44:16.205Z,0
2019-03-19T02:45:15.335Z,0
2019-03-19T02:46:15.453Z,0
2019-03-19T02:47:15.554Z,0
2019-03-19T02:48:15.673Z,0
2019-03-19T02:49:15.780Z,0
2019-03-19T02:50:15.919Z,0
2019-03-19T02:51:16.010Z,0
2019-03-19T02:52:16.115Z,0
2019-03-19T02:53:16.235Z,0
2019-03-19T02:54:16.335Z,0
2019-03-19T02:55:16.484Z,0
2019-03-19T02:56:31.240Z,0
2019-03-19T02:57:17.657Z,0
2019-03-19T02:58:16.766Z,0
2019-03-19T02:59:16.910Z,0
2019-03-19T03:00:17.049Z,0
2019-03-19T03:01:17.151Z,0
2019-03-19T03:02:17.244Z,0
2019-03-19T03:03:17.377Z,0
2019-03-19T03:04:17.496Z,0
2019-03-19T03:05:17.649Z,0
2019-03-19T03:06:18.716Z,0
2019-03-19T03:07:17.823Z,0
2019-03-19T03:08:17.927Z,0
2019-03-19T03:09:18.034Z,0
2019-03-19T03:10:18.196Z,0
2019-03-19T03:11:18.142Z,0
2019-03-19T03:12:18.237Z,0
2019-03-19T03:13:18.346Z,0
2019-03-19T03:14:18.464Z,0
2019-03-19T03:15:18.685Z,0
2019-03-19T03:16:18.620Z,0
2019-03-19T03:17:18.732Z,0
2019-03-19T03:18:18.841Z,0
2019-03-19T03:19:19.939Z,0
2019-03-19T03:20:19.128Z,0
2019-03-19T03:21:19.038Z,0
2019-03-19T03:22:19.132Z,0
2019-03-19T03:23:19.231Z,0
2019-03-19T03:24:19.335Z,0
2019-03-19T03:25:19.511Z,0
2019-03-19T03:26:19.559Z,0
2019-03-19T03:27:19.669Z,0
2019-03-19T03:28:19.769Z,0
2019-03-19T03:29:19.884Z,0
2019-03-19T03:30:20.085Z,0
2019-03-19T03:31:19.976Z,0
2019-03-19T03:32:20.133Z,0
2019-03-19T03:33:20.186Z,0
2019-03-19T03:34:20.285Z,0
2019-03-19T03:35:20.433Z,0
2019-03-19T03:36:20.531Z,0
2019-03-19T03:37:20.623Z,0
2019-03-19T03:38:20.729Z,0
2019-03-19T03:39:20.812Z,0
2019-03-19T03:40:20.931Z,0
2019-03-19T03:41:21.060Z,0
2019-03-19T03:42:21.161Z,0
2019-03-19T03:43:22.259Z,0
2019-03-19T03:44:21.346Z,0
2019-03-19T03:45:21.449Z,0
2019-03-19T03:46:21.594Z,0
2019-03-19T03:47:21.697Z,0
2019-03-19T03:48:21.790Z,0
2019-03-19T03:49:21.894Z,0
2019-03-19T03:50:21.997Z,0
2019-03-19T03:51:22.016Z,0
2019-03-19T03:52:22.128Z,0
2019-03-19T03:53:22.234Z,0
2019-03-19T03:54:22.339Z,0
2019-03-19T03:55:22.445Z,0
2019-03-19T03:56:23.579Z,0
2019-03-19T03:57:22.683Z,0
2019-03-19T03:58:22.774Z,0
2019-03-19T03:59:22.878Z,0
2019-03-19T04:00:22.998Z,0
2019-03-19T04:01:23.114Z,0
2019-03-19T04:02:23.209Z,0
2019-03-19T04:03:23.319Z,0
2019-03-19T04:04:23.442Z,0
2019-03-19T04:05:23.533Z,0
2019-03-19T04:06:23.721Z,0
2019-03-19T04:07:23.827Z,0
2019-03-19T04:08:23.926Z,0
2019-03-19T04:09:24.036Z,0
2019-03-19T04:10:24.139Z,0
2019-03-19T04:11:24.272Z,0
2019-03-19T04:12:24.379Z,0
2019-03-19T04:13:24.510Z,0
2019-03-19T04:14:24.664Z,0
2019-03-19T04:15:24.764Z,0
2019-03-19T04:16:24.918Z,0
2019-03-19T04:17:25.022Z,0
2019-03-19T04:18:25.104Z,0
2019-03-19T04:19:25.207Z,0
2019-03-19T04:20:25.302Z,0
2019-03-19T04:21:25.442Z,0
2019-03-19T04:22:25.580Z,0
2019-03-19T04:23:25.662Z,0
2019-03-19T04:24:25.802Z,0
2019-03-19T04:25:25.892Z,0
2019-03-19T04:26:26.073Z,0
2019-03-19T04:27:25.991Z,0
2019-03-19T04:28:26.090Z,0
2019-03-19T04:29:26.191Z,0
2019-03-19T04:30:26.292Z,0
2019-03-19T04:31:26.463Z,0
2019-03-19T04:32:26.410Z,0
2019-03-19T04:33:26.512Z,0
2019-03-19T04:34:27.650Z,0
2019-03-19T04:35:26.780Z,0
2019-03-19T04:36:26.942Z,0
2019-03-19T04:37:26.870Z,0
2019-03-19T04:38:26.973Z,0
2019-03-19T04:39:27.125Z,0
2019-03-19T04:40:27.229Z,0
2019-03-19T04:41:27.985Z,0
2019-03-19T04:42:27.427Z,0
2019-03-19T04:43:27.551Z,0
2019-03-19T04:44:27.647Z,0
2019-03-19T04:45:27.775Z,0
2019-03-19T04:46:27.890Z,0
2019-03-19T04:47:28.007Z,0
2019-03-19T04:48:28.095Z,0
2019-03-19T04:49:28.194Z,0
2019-03-19T04:50:28.309Z,0
2019-03-19T04:51:28.424Z,0
2019-03-19T04:52:28.516Z,0
2019-03-19T04:53:28.618Z,0
2019-03-19T04:54:28.720Z,0
2019-03-19T04:55:28.801Z,0
2019-03-19T04:56:28.925Z,0
2019-03-19T04:57:29.006Z,0
2019-03-19T04:58:29.121Z,0
2019-03-19T04:59:29.222Z,0
2019-03-19T05:00:29.332Z,0
2019-03-19T05:01:29.455Z,0
2019-03-19T05:02:29.589Z,0
2019-03-19T05:03:29.687Z,0
2019-03-19T05:04:29.788Z,0
2019-03-19T05:05:29.907Z,0
2019-03-19T05:06:30.033Z,0
2019-03-19T05:07:30.159Z,0
2019-03-19T05:08:30.273Z,0
2019-03-19T05:09:30.381Z,0
2019-03-19T05:10:30.533Z,0
2019-03-19T05:11:30.687Z,0
2019-03-19T05:12:30.810Z,0
2019-03-19T05:13:30.915Z,0
2019-03-19T05:14:31.036Z,0
2019-03-19T05:15:31.137Z,0
2019-03-19T05:16:31.287Z,0
2019-03-19T05:17:31.426Z,0
2019-03-19T05:18:31.617Z,0
2019-03-19T05:19:31.583Z,0
2019-03-19T05:20:31.686Z,0
2019-03-19T05:21:31.820Z,0
2019-03-19T05:22:31.923Z,0
2019-03-19T05:23:32.022Z,0
2019-03-19T05:24:32.139Z,0
2019-03-19T05:25:32.245Z,0
2019-03-19T05:26:32.414Z,0
2019-03-19T05:27:37.223Z,0
2019-03-19T05:28:32.405Z,0
2019-03-19T05:29:32.521Z,0
2019-03-19T05:30:32.622Z,0
2019-03-19T05:31:32.682Z,0
2019-03-19T05:32:32.725Z,0
2019-03-19T05:33:32.780Z,0
2019-03-19T05:34:32.851Z,0
2019-03-19T05:35:32.916Z,0
2019-03-19T05:36:33.078Z,5.625
2019-03-19T05:37:33.114Z,5.625
2019-03-19T05:38:34.154Z,5.625
2019-03-19T05:39:33.184Z,5.625
2019-03-19T05:40:33.222Z,5.625
2019-03-19T05:41:33.316Z,5.625
2019-03-19T05:42:33.358Z,5.625
2019-03-19T05:43:33.392Z,5.625
2019-03-19T05:44:33.434Z,5.625
2019-03-19T05:45:33.476Z,11.25
2019-03-19T05:46:33.581Z,11.25
2019-03-19T05:47:37.387Z,11.25
2019-03-19T05:48:34.778Z,11.25
2019-03-19T05:49:33.837Z,11.25
2019-03-19T05:50:33.903Z,11.25
2019-03-19T05:51:33.993Z,11.25
2019-03-19T05:52:34.087Z,11.25
2019-03-19T05:53:34.130Z,16.875
2019-03-19T05:54:34.184Z,16.875
2019-03-19T05:55:34.230Z,16.875
2019-03-19T05:56:34.308Z,16.875
2019-03-19T05:57:34.340Z,16.875
2019-03-19T05:58:35.374Z,16.875
2019-03-19T05:59:34.419Z,22.5
2019-03-19T06:00:34.443Z,22.5
2019-03-19T06:01:34.511Z,22.5
2019-03-19T06:02:34.586Z,22.5
2019-03-19T06:03:34.709Z,22.5
2019-03-19T06:04:34.746Z,22.5
2019-03-19T06:05:35.128Z,22.5
2019-03-19T06:06:34.842Z,28.125
2019-03-19T06:07:34.931Z,28.125
2019-03-19T06:08:34.977Z,28.125
2019-03-19T06:09:35.025Z,28.125
2019-03-19T06:10:35.079Z,28.125
2019-03-19T06:11:35.163Z,28.125
2019-03-19T06:12:35.165Z,28.125
2019-03-19T06:13:35.248Z,33.75
2019-03-19T06:14:35.331Z,33.75
2019-03-19T06:15:35.394Z,33.75
2019-03-19T06:16:35.449Z,33.75
2019-03-19T06:17:35.538Z,33.75
2019-03-19T06:18:35.731Z,33.75
2019-03-19T06:19:35.597Z,33.75
2019-03-19T06:20:35.649Z,39.375
2019-03-19T06:21:35.684Z,39.375
2019-03-19T06:22:35.812Z,39.375
2019-03-19T06:23:35.894Z,39.375
2019-03-19T06:24:35.898Z,39.375
2019-03-19T06:25:35.957Z,39.375
2019-03-19T06:26:36.001Z,39.375
2019-03-19T06:27:36.109Z,45
2019-03-19T06:28:36.198Z,45
2019-03-19T06:29:36.235Z,45
2019-03-19T06:30:36.271Z,45
2019-03-19T06:31:36.336Z,45
2019-03-19T06:32:36.421Z,45
2019-03-19T06:33:36.463Z,45
2019-03-19T06:34:36.549Z,45
2019-03-19T06:35:36.596Z,50.625
2019-03-19T06:36:36.664Z,50.625
2019-03-19T06:37:36.755Z,50.625
2019-03-19T06:38:36.793Z,50.625
2019-03-19T06:39:36.850Z,50.625
2019-03-19T06:40:36.883Z,50.625
2019-03-19T06:41:36.943Z,50.625
2019-03-19T06:42:37.007Z,50.625
2019-03-19T06:43:37.059Z,56.25
2019-03-19T06:44:37.088Z,56.25
2019-03-19T06:45:37.127Z,56.25
2019-03-19T06:46:37.191Z,56.25
2019-03-19T06:47:37.245Z,56.25
2019-03-19T06:48:37.288Z,56.25
2019-03-19T06:49:37.366Z,56.25
2019-03-19T06:50:44.932Z,56.25
2019-03-19T06:51:38.411Z,56.25
2019-03-19T06:52:37.484Z,61.875
2019-03-19T06:53:37.524Z,61.875
2019-03-19T06:54:37.572Z,61.875
2019-03-19T06:55:37.615Z,61.875
2019-03-19T06:56:37.737Z,61.875
2019-03-19T06:57:39.254Z,61.875
2019-03-19T06:58:37.817Z,61.875
2019-03-19T06:59:37.863Z,61.875
2019-03-19T07:00:37.902Z,61.875
2019-03-19T07:01:37.945Z,67.5
2019-03-19T07:02:38.014Z,67.5
2019-03-19T07:03:38.102Z,67.5
2019-03-19T07:04:38.161Z,67.5
2019-03-19T07:05:38.213Z,67.5
2019-03-19T07:06:39.268Z,67.5
2019-03-19T07:07:38.341Z,67.5
2019-03-19T07:08:38.385Z,67.5
2019-03-19T07:09:38.436Z,67.5
2019-03-19T07:10:38.478Z,67.5
2019-03-19T07:11:38.548Z,73.125
2019-03-19T07:12:38.631Z,73.125
2019-03-19T07:13:38.682Z,73.125
2019-03-19T07:14:38.745Z,73.125
2019-03-19T07:15:38.780Z,73.125
2019-03-19T07:16:38.836Z,73.125
2019-03-19T07:17:38.950Z,73.125
2019-03-19T07:18:38.980Z,73.125
2019-03-19T07:19:39.062Z,73.125
2019-03-19T07:20:39.111Z,73.125
2019-03-19T07:21:39.153Z,78.75
2019-03-19T07:22:39.266Z,78.75
2019-03-19T07:23:39.352Z,78.75
2019-03-19T07:24:39.400Z,78.75
2019-03-19T07:25:40.432Z,78.75
2019-03-19T07:26:39.487Z,78.75
2019-03-19T07:27:39.590Z,78.75
2019-03-19T07:28:39.630Z,78.75
2019-03-19T07:29:39.683Z,78.75
2019-03-19T07:30:40.844Z,78.75
2019-03-19T07:31:39.786Z,78.75
2019-03-19T07:32:39.870Z,78.75
2019-03-19T07:33:39.913Z,78.75
2019-03-19T07:34:39.962Z,78.75
2019-03-19T07:35:40.992Z,78.75
2019-03-19T07:36:40.032Z,78.75
2019-03-19T07:37:40.093Z,78.75
2019-03-19T07:38:40.174Z,78.75
2019-03-19T07:39:40.216Z,84.375
2019-03-19T07:40:40.261Z,84.375
2019-03-19T07:41:40.297Z,84.375
2019-03-19T07:42:40.338Z,84.375
2019-03-19T07:43:40.438Z,84.375
2019-03-19T07:44:40.487Z,84.375
2019-03-19T07:45:40.576Z,84.375
2019-03-19T07:46:40.620Z,90
2019-03-19T07:47:40.660Z,90
2019-03-19T07:48:40.749Z,90
2019-03-19T07:49:40.786Z,90
2019-03-19T07:50:40.852Z,90
2019-03-19T07:51:40.893Z,90
2019-03-19T07:52:40.934Z,90
2019-03-19T07:53:41.022Z,90
2019-03-19T07:54:41.069Z,95.625
2019-03-19T07:55:41.114Z,95.625
2019-03-19T07:56:41.152Z,95.625
2019-03-19T07:57:41.219Z,101.25
2019-03-19T07:58:45.366Z,95.625
2019-03-19T07:59:41.344Z,95.625
2019-03-19T08:00:41.418Z,95.625
2019-03-19T08:01:41.465Z,95.625
2019-03-19T08:02:41.507Z,101.25
2019-03-19T08:03:41.566Z,101.25
2019-03-19T08:04:41.626Z,101.25
2019-03-19T08:05:41.674Z,106.875
2019-03-19T08:06:41.725Z,106.875
2019-03-19T08:07:41.777Z,112.5
2019-03-19T08:08:41.856Z,112.5
2019-03-19T08:09:41.934Z,118.125
2019-03-19T08:10:41.993Z,118.125
2019-03-19T08:11:42.038Z,112.5
2019-03-19T08:12:42.614Z,118.125
2019-03-19T08:13:42.232Z,118.125
2019-03-19T08:14:42.272Z,123.75
2019-03-19T08:15:42.316Z,123.75
2019-03-19T08:16:42.380Z,123.75
2019-03-19T08:17:43.019Z,123.75
2019-03-19T08:18:42.503Z,129.375
2019-03-19T08:19:42.568Z,270
2019-03-19T08:20:42.629Z,444.375
2019-03-19T08:21:42.676Z,466.875
2019-03-19T08:22:42.735Z,585
2019-03-19T08:23:42.833Z,613.125
2019-03-19T08:24:42.923Z,630
2019-03-19T08:25:42.970Z,646.875
2019-03-19T08:26:43.026Z,630
2019-03-19T08:27:43.066Z,562.5
2019-03-19T08:28:43.176Z,556.875
2019-03-19T08:29:44.171Z,540
2019-03-19T08:30:43.209Z,551.25
2019-03-19T08:31:43.249Z,596.25
2019-03-19T08:32:43.356Z,652.5
2019-03-19T08:33:43.447Z,562.5
2019-03-19T08:34:44.488Z,495
2019-03-19T08:35:43.521Z,573.75
2019-03-19T08:36:43.604Z,562.5
2019-03-19T08:37:43.719Z,556.875
2019-03-19T08:38:43.793Z,483.75
2019-03-19T08:39:43.855Z,455.625
2019-03-19T08:40:43.930Z,416.25
2019-03-19T08:41:43.984Z,466.875
2019-03-19T08:42:44.023Z,483.75
2019-03-19T08:43:44.089Z,534.375
2019-03-19T08:44:45.119Z,601.875
2019-03-19T08:45:44.155Z,601.875
2019-03-19T08:46:44.230Z,534.375
2019-03-19T08:47:44.285Z,590.625
2019-03-19T08:48:44.354Z,562.5
2019-03-19T08:49:44.392Z,601.875
2019-03-19T08:50:44.460Z,658.125
2019-03-19T08:51:44.504Z,540
2019-03-19T08:52:44.594Z,483.75
2019-03-19T08:53:44.679Z,438.75
2019-03-19T08:54:44.798Z,455.625
2019-03-19T08:55:44.864Z,534.375
2019-03-19T08:56:44.935Z,607.5
2019-03-19T08:57:44.977Z,500.625
2019-03-19T08:58:45.102Z,410.625
2019-03-19T08:59:45.136Z,478.125
2019-03-19T09:00:45.230Z,438.75
2019-03-19T09:01:47.329Z,309.375
2019-03-19T09:02:45.322Z,371.25
2019-03-19T09:03:45.422Z,517.5
2019-03-19T09:04:45.466Z,601.875
2019-03-19T09:05:45.511Z,410.625
2019-03-19T09:06:45.550Z,376.875
2019-03-19T09:07:45.600Z,466.875
2019-03-19T09:08:45.743Z,236.25
2019-03-19T09:09:45.776Z,219.375
2019-03-19T09:10:45.867Z,348.75
2019-03-19T09:11:45.927Z,551.25
2019-03-19T09:12:48.326Z,517.5
2019-03-19T09:13:46.173Z,382.5
2019-03-19T09:14:47.205Z,247.5
2019-03-19T09:15:46.232Z,275.625
2019-03-19T09:16:46.309Z,421.875
2019-03-19T09:17:46.381Z,438.75
2019-03-19T09:18:46.432Z,438.75
2019-03-19T09:19:46.473Z,286.875
2019-03-19T09:20:46.513Z,151.875
2019-03-19T09:21:47.544Z,241.875
2019-03-19T09:22:46.612Z,731.25
2019-03-19T09:23:46.705Z,686.25
2019-03-19T09:24:46.756Z,562.5
2019-03-19T09:25:46.805Z,495
2019-03-19T09:26:46.847Z,348.75
2019-03-19T09:27:46.881Z,270
2019-03-19T09:28:46.977Z,298.125
2019-03-19T09:29:47.050Z,298.125
2019-03-19T09:30:47.145Z,275.625
2019-03-19T09:31:47.183Z,258.75
2019-03-19T09:32:47.243Z,236.25
2019-03-19T09:33:47.285Z,208.125
2019-03-19T09:34:47.403Z,202.5
2019-03-19T09:35:47.443Z,337.5
2019-03-19T09:36:56.933Z,438.75
2019-03-19T09:37:57.529Z,185.625
2019-03-19T09:38:48.659Z,399.375
2019-03-19T09:39:47.721Z,281.25
2019-03-19T09:40:48.065Z,174.375
2019-03-19T09:41:47.810Z,180
2019-03-19T09:42:47.850Z,129.375
2019-03-19T09:43:47.894Z,135
2019-03-19T09:44:57.903Z,618.75
2019-03-19T09:45:48.977Z,731.25
2019-03-19T09:46:48.012Z,517.5
2019-03-19T09:47:48.057Z,354.375
2019-03-19T09:48:48.111Z,202.5
2019-03-19T09:49:48.209Z,258.75
2019-03-19T09:50:48.254Z,534.375
2019-03-19T09:51:48.299Z,866.25
2019-03-19T09:52:48.340Z,821.25
2019-03-19T09:53:48.387Z,849.375
2019-03-19T09:54:48.469Z,742.5
2019-03-19T09:55:48.556Z,703.125
2019-03-19T09:56:48.598Z,360
2019-03-19T09:57:48.635Z,365.625
2019-03-19T09:58:48.682Z,776.25
2019-03-19T09:59:48.771Z,877.5
2019-03-19T10:00:48.827Z,624.375
2019-03-19T10:01:48.890Z,337.5
2019-03-19T10:02:48.942Z,236.25
2019-03-19T10:03:48.983Z,438.75
2019-03-19T10:04:49.072Z,630
2019-03-19T10:05:49.114Z,669.375
2019-03-19T10:06:49.161Z,551.25
2019-03-19T10:07:50.226Z,405
2019-03-19T10:08:49.236Z,534.375
2019-03-19T10:09:49.316Z,630
2019-03-19T10:10:49.353Z,675
2019-03-19T10:11:49.399Z,365.625
2019-03-19T10:12:50.445Z,253.125
2019-03-19T10:13:49.482Z,219.375
2019-03-19T10:14:49.552Z,405
2019-03-19T10:15:49.590Z,202.5
2019-03-19T10:16:49.667Z,551.25
2019-03-19T10:17:49.726Z,556.875
2019-03-19T10:18:49.766Z,191.25
2019-03-19T10:19:49.847Z,185.625
2019-03-19T10:20:49.886Z,202.5
2019-03-19T10:21:49.925Z,433.125
2019-03-19T10:22:49.981Z,427.5
2019-03-19T10:23:50.026Z,360
2019-03-19T10:24:50.100Z,298.125
2019-03-19T10:25:50.139Z,596.25
2019-03-19T10:26:50.229Z,270
2019-03-19T10:27:50.263Z,320.625
2019-03-19T10:28:50.344Z,360
2019-03-19T10:29:50.414Z,483.75
2019-03-19T10:30:50.457Z,455.625
2019-03-19T10:31:50.500Z,286.875
2019-03-19T10:32:50.554Z,213.75
2019-03-19T10:33:50.621Z,196.875
2019-03-19T10:34:50.761Z,202.5
2019-03-19T10:35:50.793Z,185.625
2019-03-19T10:36:50.892Z,191.25
2019-03-19T10:37:51.994Z,196.875
2019-03-19T10:38:51.062Z,185.625
2019-03-19T10:39:51.128Z,202.5
2019-03-19T10:40:51.191Z,613.125
2019-03-19T10:41:51.231Z,894.375
2019-03-19T10:42:51.323Z,742.5
2019-03-19T10:43:51.382Z,804.375
2019-03-19T10:44:51.482Z,939.375
2019-03-19T10:45:51.533Z,1012.5
2019-03-19T10:46:51.642Z,1102.5
2019-03-19T10:47:51.706Z,1147.5
2019-03-19T10:48:51.778Z,967.5
2019-03-19T10:49:51.900Z,720
2019-03-19T10:50:51.946Z,613.125
2019-03-19T10:51:52.013Z,916.875
2019-03-19T10:52:52.095Z,984.375
2019-03-19T10:53:52.153Z,832.5
2019-03-19T10:54:52.267Z,810
2019-03-19T10:55:52.324Z,759.375
2019-03-19T10:56:52.382Z,883.125
2019-03-19T10:57:52.474Z,1186.875
2019-03-19T10:58:52.529Z,1327.5
2019-03-19T10:59:52.856Z,1125
2019-03-19T11:00:52.727Z,1243.125
2019-03-19T11:01:52.766Z,1293.75
2019-03-19T11:02:52.897Z,1282.5
2019-03-19T11:03:52.965Z,1305
2019-03-19T11:04:53.027Z,1327.5
2019-03-19T11:05:53.000Z,1299.375
2019-03-19T11:06:53.088Z,1276.875
2019-03-19T11:07:53.133Z,1366.875
2019-03-19T11:08:53.241Z,1288.125
2019-03-19T11:09:53.275Z,286.875
2019-03-19T11:10:53.395Z,315
2019-03-19T11:11:53.448Z,1569.375
2019-03-19T11:12:53.530Z,1164.375
2019-03-19T11:13:53.585Z,990
2019-03-19T11:14:53.684Z,1276.875
2019-03-19T11:15:53.778Z,860.625
2019-03-19T11:16:53.837Z,1344.375
2019-03-19T11:17:53.920Z,1338.75
2019-03-19T11:18:53.974Z,286.875
2019-03-19T11:19:54.029Z,472.5
2019-03-19T11:20:54.166Z,1068.75
2019-03-19T11:21:54.212Z,928.125
2019-03-19T11:22:54.263Z,720
2019-03-19T11:23:54.326Z,838.125
2019-03-19T11:24:54.398Z,528.75
2019-03-19T11:25:54.850Z,697.5
2019-03-19T11:26:54.550Z,1389.375
2019-03-19T11:27:54.720Z,1305
2019-03-19T11:28:54.615Z,1293.75
2019-03-19T11:29:59.634Z,483.75
2019-03-19T11:30:54.739Z,478.125
2019-03-19T11:31:54.777Z,376.875
2019-03-19T11:32:54.812Z,990
2019-03-19T11:33:54.905Z,776.25
2019-03-19T11:34:54.977Z,1608.75
2019-03-19T11:35:55.098Z,1456.875
2019-03-19T11:36:57.879Z,534.375
2019-03-19T11:37:55.175Z,1344.375
2019-03-19T11:38:55.229Z,416.25
2019-03-19T11:39:55.298Z,1220.625
2019-03-19T11:40:55.405Z,1389.375
2019-03-19T11:41:55.453Z,1243.125
2019-03-19T11:42:55.526Z,1625.625
2019-03-19T11:43:55.598Z,1603.125
2019-03-19T11:44:55.714Z,1513.125
2019-03-19T11:45:55.810Z,1400.625
2019-03-19T11:46:55.844Z,1558.125
2019-03-19T11:47:55.886Z,1783.125
2019-03-19T11:48:55.930Z,1777.5
2019-03-19T11:49:55.992Z,1749.375
2019-03-19T11:50:56.067Z,1473.75
2019-03-19T11:51:56.116Z,1591.875
2019-03-19T11:52:56.204Z,1698.75
2019-03-19T11:53:56.328Z,1305
2019-03-19T11:54:56.380Z,1271.25
2019-03-19T11:55:56.541Z,1417.5
2019-03-19T11:56:56.474Z,1260
2019-03-19T11:57:57.669Z,1479.375
2019-03-19T11:58:56.597Z,1631.25
2019-03-19T11:59:56.668Z,1603.125
2019-03-19T12:00:57.720Z,1586.25
2019-03-19T12:01:56.775Z,1608.75
2019-03-19T12:02:56.871Z,1614.375
2019-03-19T12:03:57.899Z,1620
2019-03-19T12:04:56.963Z,1642.5
2019-03-19T12:05:57.020Z,1546.875
2019-03-19T12:06:57.134Z,1338.75
2019-03-19T12:07:57.182Z,1248.75
2019-03-19T12:08:57.246Z,1327.5
2019-03-19T12:09:57.299Z,1530
2019-03-19T12:10:57.416Z,1535.625
2019-03-19T12:11:57.519Z,1558.125
2019-03-19T12:12:57.593Z,1608.75
2019-03-19T12:13:57.726Z,1732.5
2019-03-19T12:14:57.822Z,1783.125
2019-03-19T12:15:57.922Z,1777.5
2019-03-19T12:16:57.978Z,1805.625
2019-03-19T12:17:58.037Z,1811.25
2019-03-19T12:18:58.108Z,1811.25
2019-03-19T12:19:58.217Z,1861.875
2019-03-19T12:20:58.568Z,1890
2019-03-19T12:21:58.352Z,1890
2019-03-19T12:22:58.410Z,1867.5
2019-03-19T12:23:58.534Z,1895.625
2019-03-19T12:24:58.627Z,1828.125
2019-03-19T12:25:58.725Z,1771.875
2019-03-19T12:26:58.813Z,1715.625
2019-03-19T12:27:58.876Z,1743.75
2019-03-19T12:28:58.943Z,1766.25
2019-03-19T12:29:59.025Z,1794.375
2019-03-19T12:30:59.199Z,1794.375
2019-03-19T12:31:59.111Z,1783.125
2019-03-19T12:32:59.159Z,1738.125
2019-03-19T12:33:59.253Z,1693.125
2019-03-19T12:35:01.512Z,1665
2019-03-19T12:35:59.428Z,1676.25
2019-03-19T12:36:59.450Z,1732.5
2019-03-19T12:37:59.508Z,1766.25
2019-03-19T12:38:59.558Z,1783.125
2019-03-19T12:39:59.668Z,1805.625
2019-03-19T12:40:59.860Z,1766.25
2019-03-19T12:41:59.750Z,1693.125
2019-03-19T12:42:59.814Z,1558.125
2019-03-19T12:43:59.865Z,1518.75
2019-03-19T12:44:59.971Z,1445.625
2019-03-19T12:46:00.107Z,995.625
2019-03-19T12:47:00.244Z,1479.375
2019-03-19T12:48:00.325Z,1513.125
2019-03-19T12:49:00.379Z,1485
2019-03-19T12:50:00.480Z,1440
2019-03-19T12:51:00.547Z,1406.25
2019-03-19T12:52:00.601Z,1406.25
2019-03-19T12:53:00.679Z,1203.75
2019-03-19T12:54:00.743Z,1400.625
2019-03-19T12:55:00.792Z,1366.875
2019-03-19T12:56:00.909Z,1350
2019-03-19T12:57:00.968Z,1333.125
2019-03-19T12:58:01.434Z,1395
2019-03-19T12:59:01.088Z,1468.125
2019-03-19T13:00:01.249Z,1507.5
2019-03-19T13:01:01.386Z,1479.375
2019-03-19T13:02:01.491Z,1501.875
2019-03-19T13:03:01.947Z,1541.25
2019-03-19T13:04:01.699Z,1620
2019-03-19T13:05:01.754Z,1670.625
2019-03-19T13:06:01.922Z,1693.125
2019-03-19T13:07:01.826Z,1743.75
2019-03-19T13:08:02.127Z,1507.5
2019-03-19T13:09:02.015Z,1755
2019-03-19T13:10:02.123Z,1839.375
2019-03-19T13:11:02.216Z,798.75
2019-03-19T13:12:02.274Z,1749.375
2019-03-19T13:13:02.354Z,472.5
2019-03-19T13:14:02.489Z,517.5
2019-03-19T13:15:02.574Z,646.875
2019-03-19T13:16:02.659Z,1085.625
2019-03-19T13:17:02.634Z,697.5
2019-03-19T13:18:02.686Z,866.25
2019-03-19T13:19:02.744Z,354.375
2019-03-19T13:20:02.796Z,466.875
2019-03-19T13:21:02.965Z,1513.125
2019-03-19T13:22:02.895Z,1473.75
2019-03-19T13:23:02.970Z,1147.5